sensor_id;sensor_type;location;lat;lon;timestamp;P1;durP1;ratioP1;P2;durP2;ratioP2
5937;SDS011;2994;51.220;4.412;2024-03-02T00:00:15;1.30;;;0.83;;
5937;SDS011;2994;51.220;4.412;2024-03-02T00:05:11;1.30;;;0.57;;
5937;SDS011;2994;51.220;4.412;2024-03-02T00:07:37;1.30;;;0.90;;
5937;SDS011;2994;51.220;4.412;2024-03-02T00:10:05;1.07;;;0.63;;
5937;SDS011;2994;51.220;4.412;2024-03-02T00:12:35;2.60;;;0.67;;
5937;SDS011;2994;51.220;4.412;2024-03-02T00:15:01;1.80;;;0.70;;
5937;SDS011;2994;51.220;4.412;2024-03-02T00:17:27;0.90;;;0.70;;
5937;SDS011;2994;51.220;4.412;2024-03-02T00:19:54;1.40;;;0.50;;
5937;SDS011;2994;51.220;4.412;2024-03-02T00:22:20;1.70;;;0.87;;
5937;SDS011;2994;51.220;4.412;2024-03-02T00:24:45;0.80;;;0.50;;
5937;SDS011;2994;51.220;4.412;2024-03-02T00:27:12;0.97;;;0.50;;
5937;SDS011;2994;51.220;4.412;2024-03-02T00:29:39;1.10;;;0.77;;
5937;SDS011;2994;51.220;4.412;2024-03-02T00:32:10;1.57;;;0.60;;
5937;SDS011;2994;51.220;4.412;2024-03-02T00:34:38;1.10;;;0.50;;
5937;SDS011;2994;51.220;4.412;2024-03-02T00:37:04;0.60;;;0.40;;
5937;SDS011;2994;51.220;4.412;2024-03-02T00:39:29;1.00;;;0.50;;
5937;SDS011;2994;51.220;4.412;2024-03-02T00:41:55;0.80;;;0.70;;
5937;SDS011;2994;51.220;4.412;2024-03-02T00:44:20;1.30;;;0.60;;
5937;SDS011;2994;51.220;4.412;2024-03-02T00:46:51;1.03;;;0.63;;
5937;SDS011;2994;51.220;4.412;2024-03-02T00:49:21;0.93;;;0.63;;
5937;SDS011;2994;51.220;4.412;2024-03-02T00:51:48;1.70;;;0.70;;
5937;SDS011;2994;51.220;4.412;2024-03-02T00:54:15;1.03;;;0.67;;
5937;SDS011;2994;51.220;4.412;2024-03-02T00:56:44;1.03;;;0.67;;
5937;SDS011;2994;51.220;4.412;2024-03-02T00:59:10;0.90;;;0.73;;
5937;SDS011;2994;51.220;4.412;2024-03-02T01:01:35;0.87;;;0.60;;
5937;SDS011;2994;51.220;4.412;2024-03-02T01:04:01;1.47;;;0.70;;
5937;SDS011;2994;51.220;4.412;2024-03-02T01:06:26;0.80;;;0.63;;
5937;SDS011;2994;51.220;4.412;2024-03-02T01:08:52;0.93;;;0.73;;
5937;SDS011;2994;51.220;4.412;2024-03-02T01:11:18;1.97;;;1.00;;
5937;SDS011;2994;51.220;4.412;2024-03-02T01:13:43;0.90;;;0.60;;
5937;SDS011;2994;51.220;4.412;2024-03-02T01:16:09;0.70;;;0.53;;
5937;SDS011;2994;51.220;4.412;2024-03-02T01:18:35;1.50;;;0.70;;
5937;SDS011;2994;51.220;4.412;2024-03-02T01:21:00;1.30;;;0.73;;
5937;SDS011;2994;51.220;4.412;2024-03-02T01:23:26;1.20;;;1.10;;
5937;SDS011;2994;51.220;4.412;2024-03-02T01:25:52;2.27;;;0.87;;
5937;SDS011;2994;51.220;4.412;2024-03-02T01:28:18;1.10;;;0.80;;
5937;SDS011;2994;51.220;4.412;2024-03-02T01:30:45;0.90;;;0.70;;
5937;SDS011;2994;51.220;4.412;2024-03-02T01:33:11;1.37;;;0.70;;
5937;SDS011;2994;51.220;4.412;2024-03-02T01:35:36;1.30;;;0.63;;
5937;SDS011;2994;51.220;4.412;2024-03-02T01:38:02;0.70;;;0.50;;
5937;SDS011;2994;51.220;4.412;2024-03-02T01:40:28;1.00;;;0.70;;
5937;SDS011;2994;51.220;4.412;2024-03-02T01:42:54;1.03;;;0.90;;
5937;SDS011;2994;51.220;4.412;2024-03-02T01:45:20;0.80;;;0.80;;
5937;SDS011;2994;51.220;4.412;2024-03-02T01:47:46;1.30;;;0.67;;
5937;SDS011;2994;51.220;4.412;2024-03-02T01:50:12;1.23;;;0.77;;
5937;SDS011;2994;51.220;4.412;2024-03-02T01:52:38;1.03;;;0.60;;
5937;SDS011;2994;51.220;4.412;2024-03-02T01:55:04;1.13;;;0.80;;
5937;SDS011;2994;51.220;4.412;2024-03-02T01:57:29;1.70;;;0.70;;
5937;SDS011;2994;51.220;4.412;2024-03-02T01:59:55;2.00;;;0.83;;
5937;SDS011;2994;51.220;4.412;2024-03-02T02:02:21;2.63;;;0.90;;
5937;SDS011;2994;51.220;4.412;2024-03-02T02:04:47;1.10;;;0.80;;
5937;SDS011;2994;51.220;4.412;2024-03-02T02:07:12;0.83;;;0.63;;
5937;SDS011;2994;51.220;4.412;2024-03-02T02:09:39;0.90;;;0.67;;
5937;SDS011;2994;51.220;4.412;2024-03-02T02:12:08;2.30;;;0.80;;
5937;SDS011;2994;51.220;4.412;2024-03-02T02:14:34;1.03;;;0.60;;
5937;SDS011;2994;51.220;4.412;2024-03-02T02:17:00;0.80;;;0.50;;
5937;SDS011;2994;51.220;4.412;2024-03-02T02:19:25;1.33;;;0.87;;
5937;SDS011;2994;51.220;4.412;2024-03-02T02:21:50;1.53;;;0.73;;
5937;SDS011;2994;51.220;4.412;2024-03-02T02:24:16;1.23;;;0.70;;
5937;SDS011;2994;51.220;4.412;2024-03-02T02:26:41;1.10;;;0.80;;
5937;SDS011;2994;51.220;4.412;2024-03-02T02:29:07;2.70;;;1.07;;
5937;SDS011;2994;51.220;4.412;2024-03-02T02:31:41;1.60;;;0.80;;
5937;SDS011;2994;51.220;4.412;2024-03-02T02:34:07;2.80;;;0.70;;
5937;SDS011;2994;51.220;4.412;2024-03-02T02:36:34;2.00;;;1.17;;
5937;SDS011;2994;51.220;4.412;2024-03-02T02:39:03;1.43;;;0.87;;
5937;SDS011;2994;51.220;4.412;2024-03-02T02:41:30;1.67;;;0.73;;
5937;SDS011;2994;51.220;4.412;2024-03-02T02:43:55;0.97;;;0.60;;
5937;SDS011;2994;51.220;4.412;2024-03-02T02:46:21;1.23;;;1.03;;
5937;SDS011;2994;51.220;4.412;2024-03-02T02:48:46;1.30;;;0.60;;
5937;SDS011;2994;51.220;4.412;2024-03-02T02:51:12;0.93;;;0.87;;
5937;SDS011;2994;51.220;4.412;2024-03-02T02:53:37;1.00;;;0.80;;
5937;SDS011;2994;51.220;4.412;2024-03-02T02:56:05;1.87;;;0.80;;
5937;SDS011;2994;51.220;4.412;2024-03-02T02:58:34;1.03;;;0.77;;
5937;SDS011;2994;51.220;4.412;2024-03-02T03:01:00;1.63;;;0.90;;
5937;SDS011;2994;51.220;4.412;2024-03-02T03:03:25;1.23;;;0.60;;
5937;SDS011;2994;51.220;4.412;2024-03-02T03:05:51;1.30;;;0.67;;
5937;SDS011;2994;51.220;4.412;2024-03-02T03:08:16;0.80;;;0.50;;
5937;SDS011;2994;51.220;4.412;2024-03-02T03:10:42;1.00;;;0.50;;
5937;SDS011;2994;51.220;4.412;2024-03-02T03:13:07;1.70;;;0.90;;
5937;SDS011;2994;51.220;4.412;2024-03-02T03:15:36;1.57;;;0.77;;
5937;SDS011;2994;51.220;4.412;2024-03-02T03:18:03;1.00;;;0.80;;
5937;SDS011;2994;51.220;4.412;2024-03-02T03:20:29;3.23;;;0.73;;
5937;SDS011;2994;51.220;4.412;2024-03-02T03:22:55;1.27;;;0.80;;
5937;SDS011;2994;51.220;4.412;2024-03-02T03:25:20;1.43;;;0.60;;
5937;SDS011;2994;51.220;4.412;2024-03-02T03:27:46;1.80;;;0.77;;
5937;SDS011;2994;51.220;4.412;2024-03-02T03:30:12;1.63;;;0.60;;
5937;SDS011;2994;51.220;4.412;2024-03-02T03:32:38;2.30;;;0.90;;
5937;SDS011;2994;51.220;4.412;2024-03-02T03:35:04;1.30;;;0.90;;
5937;SDS011;2994;51.220;4.412;2024-03-02T03:37:29;1.43;;;0.60;;
5937;SDS011;2994;51.220;4.412;2024-03-02T03:39:58;2.47;;;0.97;;
5937;SDS011;2994;51.220;4.412;2024-03-02T03:42:27;3.03;;;1.10;;
5937;SDS011;2994;51.220;4.412;2024-03-02T03:44:53;1.07;;;0.77;;
5937;SDS011;2994;51.220;4.412;2024-03-02T03:47:19;1.10;;;0.70;;
5937;SDS011;2994;51.220;4.412;2024-03-02T03:49:45;1.30;;;0.90;;
5937;SDS011;2994;51.220;4.412;2024-03-02T03:52:10;1.00;;;0.90;;
5937;SDS011;2994;51.220;4.412;2024-03-02T03:54:36;0.90;;;0.60;;
5937;SDS011;2994;51.220;4.412;2024-03-02T03:57:03;1.60;;;0.73;;
5937;SDS011;2994;51.220;4.412;2024-03-02T03:59:29;1.83;;;0.80;;
5937;SDS011;2994;51.220;4.412;2024-03-02T04:01:54;1.10;;;0.80;;
5937;SDS011;2994;51.220;4.412;2024-03-02T04:04:20;0.93;;;0.77;;
5937;SDS011;2994;51.220;4.412;2024-03-02T04:06:45;1.23;;;0.90;;
5937;SDS011;2994;51.220;4.412;2024-03-02T04:09:10;3.10;;;1.17;;
5937;SDS011;2994;51.220;4.412;2024-03-02T04:11:36;1.10;;;0.60;;
5937;SDS011;2994;51.220;4.412;2024-03-02T04:14:01;3.37;;;1.40;;
5937;SDS011;2994;51.220;4.412;2024-03-02T04:16:27;1.33;;;0.77;;
5937;SDS011;2994;51.220;4.412;2024-03-02T04:18:53;3.53;;;1.20;;
5937;SDS011;2994;51.220;4.412;2024-03-02T04:21:19;1.90;;;0.80;;
5937;SDS011;2994;51.220;4.412;2024-03-02T04:23:44;1.20;;;1.00;;
5937;SDS011;2994;51.220;4.412;2024-03-02T04:26:10;3.20;;;1.07;;
5937;SDS011;2994;51.220;4.412;2024-03-02T04:28:35;1.30;;;0.67;;
5937;SDS011;2994;51.220;4.412;2024-03-02T04:31:01;2.30;;;1.10;;
5937;SDS011;2994;51.220;4.412;2024-03-02T04:33:26;1.43;;;0.80;;
5937;SDS011;2994;51.220;4.412;2024-03-02T04:35:52;2.83;;;0.83;;
5937;SDS011;2994;51.220;4.412;2024-03-02T04:38:17;2.77;;;1.10;;
5937;SDS011;2994;51.220;4.412;2024-03-02T04:40:42;1.50;;;0.90;;
5937;SDS011;2994;51.220;4.412;2024-03-02T04:43:08;1.37;;;0.80;;
5937;SDS011;2994;51.220;4.412;2024-03-02T04:45:34;1.07;;;0.90;;
5937;SDS011;2994;51.220;4.412;2024-03-02T04:48:02;1.47;;;0.83;;
5937;SDS011;2994;51.220;4.412;2024-03-02T04:50:28;1.10;;;0.70;;
5937;SDS011;2994;51.220;4.412;2024-03-02T04:52:54;2.40;;;0.90;;
5937;SDS011;2994;51.220;4.412;2024-03-02T04:55:19;2.40;;;1.00;;
5937;SDS011;2994;51.220;4.412;2024-03-02T04:58:02;2.00;;;0.97;;
5937;SDS011;2994;51.220;4.412;2024-03-02T05:00:27;2.00;;;0.77;;
5937;SDS011;2994;51.220;4.412;2024-03-02T05:02:53;2.30;;;0.87;;
5937;SDS011;2994;51.220;4.412;2024-03-02T05:05:18;2.70;;;0.73;;
5937;SDS011;2994;51.220;4.412;2024-03-02T05:07:44;3.60;;;1.27;;
5937;SDS011;2994;51.220;4.412;2024-03-02T05:10:09;3.00;;;0.90;;
5937;SDS011;2994;51.220;4.412;2024-03-02T05:12:37;1.07;;;0.80;;
5937;SDS011;2994;51.220;4.412;2024-03-02T05:15:08;2.27;;;0.87;;
5937;SDS011;2994;51.220;4.412;2024-03-02T05:17:39;1.60;;;0.70;;
5937;SDS011;2994;51.220;4.412;2024-03-02T05:20:08;1.83;;;0.80;;
5937;SDS011;2994;51.220;4.412;2024-03-02T05:22:34;1.73;;;1.10;;
5937;SDS011;2994;51.220;4.412;2024-03-02T05:25:00;2.20;;;0.87;;
5937;SDS011;2994;51.220;4.412;2024-03-02T05:27:26;3.20;;;1.10;;
5937;SDS011;2994;51.220;4.412;2024-03-02T05:29:52;1.50;;;0.87;;
5937;SDS011;2994;51.220;4.412;2024-03-02T05:32:17;1.30;;;0.70;;
5937;SDS011;2994;51.220;4.412;2024-03-02T05:34:43;6.67;;;1.57;;
5937;SDS011;2994;51.220;4.412;2024-03-02T05:37:08;1.57;;;1.10;;
5937;SDS011;2994;51.220;4.412;2024-03-02T05:39:34;1.60;;;0.80;;
5937;SDS011;2994;51.220;4.412;2024-03-02T05:41:59;1.90;;;1.10;;
5937;SDS011;2994;51.220;4.412;2024-03-02T05:44:24;3.27;;;0.90;;
5937;SDS011;2994;51.220;4.412;2024-03-02T05:46:50;1.27;;;0.80;;
5937;SDS011;2994;51.220;4.412;2024-03-02T05:49:15;3.27;;;1.00;;
5937;SDS011;2994;51.220;4.412;2024-03-02T05:51:41;2.97;;;0.87;;
5937;SDS011;2994;51.220;4.412;2024-03-02T05:54:06;3.93;;;1.17;;
5937;SDS011;2994;51.220;4.412;2024-03-02T05:56:32;3.03;;;1.00;;
5937;SDS011;2994;51.220;4.412;2024-03-02T05:58:57;1.87;;;1.60;;
5937;SDS011;2994;51.220;4.412;2024-03-02T06:01:38;3.07;;;1.10;;
5937;SDS011;2994;51.220;4.412;2024-03-02T06:04:04;3.07;;;1.20;;
5937;SDS011;2994;51.220;4.412;2024-03-02T06:06:30;1.30;;;1.10;;
5937;SDS011;2994;51.220;4.412;2024-03-02T06:08:57;2.67;;;1.40;;
5937;SDS011;2994;51.220;4.412;2024-03-02T06:11:23;4.70;;;1.97;;
5937;SDS011;2994;51.220;4.412;2024-03-02T06:13:49;2.20;;;1.03;;
5937;SDS011;2994;51.220;4.412;2024-03-02T06:16:15;3.90;;;1.10;;
5937;SDS011;2994;51.220;4.412;2024-03-02T06:18:40;4.73;;;1.20;;
5937;SDS011;2994;51.220;4.412;2024-03-02T06:21:06;3.50;;;1.23;;
5937;SDS011;2994;51.220;4.412;2024-03-02T06:23:31;1.83;;;1.23;;
5937;SDS011;2994;51.220;4.412;2024-03-02T06:25:57;1.90;;;0.90;;
5937;SDS011;2994;51.220;4.412;2024-03-02T06:28:22;3.80;;;2.00;;
5937;SDS011;2994;51.220;4.412;2024-03-02T06:30:48;2.07;;;1.30;;
5937;SDS011;2994;51.220;4.412;2024-03-02T06:33:13;2.23;;;1.40;;
5937;SDS011;2994;51.220;4.412;2024-03-02T06:35:38;2.43;;;0.80;;
5937;SDS011;2994;51.220;4.412;2024-03-02T06:38:04;2.63;;;1.23;;
5937;SDS011;2994;51.220;4.412;2024-03-02T06:40:29;1.57;;;1.13;;
5937;SDS011;2994;51.220;4.412;2024-03-02T06:42:55;4.97;;;1.80;;
5937;SDS011;2994;51.220;4.412;2024-03-02T06:45:20;2.47;;;1.10;;
5937;SDS011;2994;51.220;4.412;2024-03-02T06:47:46;2.60;;;1.50;;
5937;SDS011;2994;51.220;4.412;2024-03-02T06:50:11;1.57;;;1.23;;
5937;SDS011;2994;51.220;4.412;2024-03-02T06:52:37;2.43;;;1.27;;
5937;SDS011;2994;51.220;4.412;2024-03-02T06:55:02;4.07;;;1.60;;
5937;SDS011;2994;51.220;4.412;2024-03-02T06:57:29;2.37;;;1.20;;
5937;SDS011;2994;51.220;4.412;2024-03-02T06:59:54;4.27;;;2.30;;
5937;SDS011;2994;51.220;4.412;2024-03-02T07:02:23;5.50;;;1.60;;
5937;SDS011;2994;51.220;4.412;2024-03-02T07:04:52;3.23;;;1.50;;
5937;SDS011;2994;51.220;4.412;2024-03-02T07:07:18;2.80;;;1.53;;
5937;SDS011;2994;51.220;4.412;2024-03-02T07:09:43;2.90;;;1.40;;
5937;SDS011;2994;51.220;4.412;2024-03-02T07:12:09;3.17;;;1.67;;
5937;SDS011;2994;51.220;4.412;2024-03-02T07:14:35;1.70;;;1.10;;
5937;SDS011;2994;51.220;4.412;2024-03-02T07:17:22;2.27;;;0.97;;
5937;SDS011;2994;51.220;4.412;2024-03-02T07:19:47;2.30;;;1.03;;
5937;SDS011;2994;51.220;4.412;2024-03-02T07:22:13;2.10;;;0.97;;
5937;SDS011;2994;51.220;4.412;2024-03-02T07:24:39;4.00;;;1.07;;
5937;SDS011;2994;51.220;4.412;2024-03-02T07:27:08;3.93;;;1.20;;
5937;SDS011;2994;51.220;4.412;2024-03-02T07:29:38;4.90;;;1.10;;
5937;SDS011;2994;51.220;4.412;2024-03-02T07:32:04;2.67;;;1.40;;
5937;SDS011;2994;51.220;4.412;2024-03-02T07:34:30;4.70;;;1.10;;
5937;SDS011;2994;51.220;4.412;2024-03-02T07:36:55;1.83;;;1.57;;
5937;SDS011;2994;51.220;4.412;2024-03-02T07:39:21;5.03;;;1.20;;
5937;SDS011;2994;51.220;4.412;2024-03-02T07:41:47;3.70;;;1.43;;
5937;SDS011;2994;51.220;4.412;2024-03-02T07:44:12;1.80;;;1.10;;
5937;SDS011;2994;51.220;4.412;2024-03-02T07:46:41;3.10;;;1.80;;
5937;SDS011;2994;51.220;4.412;2024-03-02T07:49:07;1.50;;;1.00;;
5937;SDS011;2994;51.220;4.412;2024-03-02T07:51:33;3.00;;;1.17;;
5937;SDS011;2994;51.220;4.412;2024-03-02T07:53:59;1.93;;;1.40;;
5937;SDS011;2994;51.220;4.412;2024-03-02T07:56:24;2.60;;;1.10;;
5937;SDS011;2994;51.220;4.412;2024-03-02T07:58:50;5.87;;;1.67;;
5937;SDS011;2994;51.220;4.412;2024-03-02T08:01:15;5.47;;;1.40;;
5937;SDS011;2994;51.220;4.412;2024-03-02T08:03:42;2.60;;;1.53;;
5937;SDS011;2994;51.220;4.412;2024-03-02T08:06:08;4.90;;;2.00;;
5937;SDS011;2994;51.220;4.412;2024-03-02T08:08:33;3.53;;;1.47;;
5937;SDS011;2994;51.220;4.412;2024-03-02T08:10:59;5.00;;;1.40;;
5937;SDS011;2994;51.220;4.412;2024-03-02T08:13:24;4.87;;;1.80;;
5937;SDS011;2994;51.220;4.412;2024-03-02T08:15:49;3.77;;;1.50;;
5937;SDS011;2994;51.220;4.412;2024-03-02T08:18:15;2.33;;;1.00;;
5937;SDS011;2994;51.220;4.412;2024-03-02T08:20:40;2.57;;;1.10;;
5937;SDS011;2994;51.220;4.412;2024-03-02T08:23:06;4.57;;;1.53;;
5937;SDS011;2994;51.220;4.412;2024-03-02T08:25:32;3.13;;;1.63;;
5937;SDS011;2994;51.220;4.412;2024-03-02T08:27:58;1.80;;;1.40;;
5937;SDS011;2994;51.220;4.412;2024-03-02T08:30:23;3.90;;;1.87;;
5937;SDS011;2994;51.220;4.412;2024-03-02T08:32:49;2.60;;;1.23;;
5937;SDS011;2994;51.220;4.412;2024-03-02T08:35:14;3.00;;;1.30;;
5937;SDS011;2994;51.220;4.412;2024-03-02T08:37:40;3.70;;;1.30;;
5937;SDS011;2994;51.220;4.412;2024-03-02T08:40:07;2.77;;;1.27;;
5937;SDS011;2994;51.220;4.412;2024-03-02T08:42:33;4.70;;;1.77;;
5937;SDS011;2994;51.220;4.412;2024-03-02T08:44:58;3.20;;;1.10;;
5937;SDS011;2994;51.220;4.412;2024-03-02T08:47:26;5.90;;;1.70;;
5937;SDS011;2994;51.220;4.412;2024-03-02T08:49:52;2.03;;;1.00;;
5937;SDS011;2994;51.220;4.412;2024-03-02T08:52:17;3.67;;;1.70;;
5937;SDS011;2994;51.220;4.412;2024-03-02T08:54:43;4.83;;;1.80;;
5937;SDS011;2994;51.220;4.412;2024-03-02T08:57:08;2.63;;;1.30;;
5937;SDS011;2994;51.220;4.412;2024-03-02T08:59:33;2.83;;;1.50;;
5937;SDS011;2994;51.220;4.412;2024-03-02T09:01:59;2.23;;;1.00;;
5937;SDS011;2994;51.220;4.412;2024-03-02T09:04:24;3.53;;;1.97;;
5937;SDS011;2994;51.220;4.412;2024-03-02T09:06:50;4.70;;;1.67;;
5937;SDS011;2994;51.220;4.412;2024-03-02T09:09:15;8.70;;;2.80;;
5937;SDS011;2994;51.220;4.412;2024-03-02T09:11:41;4.97;;;3.00;;
5937;SDS011;2994;51.220;4.412;2024-03-02T09:14:06;3.87;;;1.60;;
5937;SDS011;2994;51.220;4.412;2024-03-02T09:16:31;5.60;;;2.10;;
5937;SDS011;2994;51.220;4.412;2024-03-02T09:18:57;2.93;;;1.60;;
5937;SDS011;2994;51.220;4.412;2024-03-02T09:21:23;4.20;;;1.50;;
5937;SDS011;2994;51.220;4.412;2024-03-02T09:23:48;4.20;;;1.40;;
5937;SDS011;2994;51.220;4.412;2024-03-02T09:26:14;2.57;;;1.20;;
5937;SDS011;2994;51.220;4.412;2024-03-02T09:28:43;3.63;;;1.70;;
5937;SDS011;2994;51.220;4.412;2024-03-02T09:31:09;1.83;;;0.83;;
5937;SDS011;2994;51.220;4.412;2024-03-02T09:33:34;2.90;;;1.53;;
5937;SDS011;2994;51.220;4.412;2024-03-02T09:35:59;4.17;;;1.10;;
5937;SDS011;2994;51.220;4.412;2024-03-02T09:38:25;2.70;;;1.33;;
5937;SDS011;2994;51.220;4.412;2024-03-02T09:40:53;5.67;;;1.80;;
5937;SDS011;2994;51.220;4.412;2024-03-02T09:43:18;2.70;;;1.60;;
5937;SDS011;2994;51.220;4.412;2024-03-02T09:45:43;6.10;;;1.90;;
5937;SDS011;2994;51.220;4.412;2024-03-02T09:48:10;7.07;;;1.47;;
5937;SDS011;2994;51.220;4.412;2024-03-02T09:50:35;1.83;;;1.07;;
5937;SDS011;2994;51.220;4.412;2024-03-02T09:53:01;2.93;;;1.23;;
5937;SDS011;2994;51.220;4.412;2024-03-02T09:55:27;3.40;;;2.00;;
5937;SDS011;2994;51.220;4.412;2024-03-02T09:57:53;8.47;;;1.37;;
5937;SDS011;2994;51.220;4.412;2024-03-02T10:00:18;3.80;;;1.60;;
5937;SDS011;2994;51.220;4.412;2024-03-02T10:02:44;4.30;;;1.70;;
5937;SDS011;2994;51.220;4.412;2024-03-02T10:05:09;2.80;;;2.37;;
5937;SDS011;2994;51.220;4.412;2024-03-02T10:07:35;5.43;;;1.50;;
5937;SDS011;2994;51.220;4.412;2024-03-02T10:10:12;4.03;;;1.53;;
5937;SDS011;2994;51.220;4.412;2024-03-02T10:12:38;3.70;;;2.10;;
5937;SDS011;2994;51.220;4.412;2024-03-02T10:15:04;4.97;;;2.43;;
5937;SDS011;2994;51.220;4.412;2024-03-02T10:17:31;3.97;;;1.33;;
5937;SDS011;2994;51.220;4.412;2024-03-02T10:19:56;7.00;;;1.93;;
5937;SDS011;2994;51.220;4.412;2024-03-02T10:22:22;5.30;;;1.43;;
5937;SDS011;2994;51.220;4.412;2024-03-02T10:24:48;3.40;;;1.93;;
5937;SDS011;2994;51.220;4.412;2024-03-02T10:27:19;4.77;;;1.43;;
5937;SDS011;2994;51.220;4.412;2024-03-02T10:29:48;4.40;;;1.63;;
5937;SDS011;2994;51.220;4.412;2024-03-02T10:32:15;6.23;;;1.57;;
5937;SDS011;2994;51.220;4.412;2024-03-02T10:34:41;3.93;;;1.57;;
5937;SDS011;2994;51.220;4.412;2024-03-02T10:37:11;1.83;;;1.13;;
5937;SDS011;2994;51.220;4.412;2024-03-02T10:39:37;3.10;;;1.07;;
5937;SDS011;2994;51.220;4.412;2024-03-02T10:42:05;8.83;;;2.77;;
5937;SDS011;2994;51.220;4.412;2024-03-02T10:44:32;8.10;;;2.83;;
5937;SDS011;2994;51.220;4.412;2024-03-02T10:47:01;3.10;;;1.40;;
5937;SDS011;2994;51.220;4.412;2024-03-02T10:49:29;4.50;;;2.20;;
5937;SDS011;2994;51.220;4.412;2024-03-02T10:51:56;3.07;;;1.13;;
5937;SDS011;2994;51.220;4.412;2024-03-02T10:54:25;5.60;;;1.63;;
5937;SDS011;2994;51.220;4.412;2024-03-02T10:56:52;6.30;;;2.00;;
5937;SDS011;2994;51.220;4.412;2024-03-02T10:59:33;3.23;;;1.47;;
5937;SDS011;2994;51.220;4.412;2024-03-02T11:02:00;4.80;;;1.30;;
5937;SDS011;2994;51.220;4.412;2024-03-02T11:04:27;2.80;;;1.50;;
5937;SDS011;2994;51.220;4.412;2024-03-02T11:06:56;6.90;;;1.10;;
5937;SDS011;2994;51.220;4.412;2024-03-02T11:09:26;3.73;;;1.33;;
5937;SDS011;2994;51.220;4.412;2024-03-02T11:14:54;5.33;;;1.67;;
5937;SDS011;2994;51.220;4.412;2024-03-02T11:17:20;2.70;;;1.37;;
5937;SDS011;2994;51.220;4.412;2024-03-02T11:19:46;4.50;;;1.17;;
5937;SDS011;2994;51.220;4.412;2024-03-02T11:22:13;4.23;;;1.40;;
5937;SDS011;2994;51.220;4.412;2024-03-02T11:24:40;4.77;;;1.83;;
5937;SDS011;2994;51.220;4.412;2024-03-02T11:27:14;3.63;;;1.70;;
5937;SDS011;2994;51.220;4.412;2024-03-02T11:32:24;4.70;;;1.20;;
5937;SDS011;2994;51.220;4.412;2024-03-02T11:34:50;4.87;;;1.63;;
5937;SDS011;2994;51.220;4.412;2024-03-02T11:37:16;5.47;;;2.23;;
5937;SDS011;2994;51.220;4.412;2024-03-02T11:39:44;3.70;;;1.53;;
5937;SDS011;2994;51.220;4.412;2024-03-02T11:42:10;2.83;;;1.27;;
5937;SDS011;2994;51.220;4.412;2024-03-02T11:44:39;5.80;;;2.37;;
5937;SDS011;2994;51.220;4.412;2024-03-02T11:47:06;7.30;;;1.37;;
5937;SDS011;2994;51.220;4.412;2024-03-02T11:49:45;3.37;;;1.40;;
5937;SDS011;2994;51.220;4.412;2024-03-02T11:52:14;3.23;;;1.30;;
5937;SDS011;2994;51.220;4.412;2024-03-02T11:54:41;3.80;;;1.20;;
5937;SDS011;2994;51.220;4.412;2024-03-02T11:57:14;5.50;;;1.90;;
5937;SDS011;2994;51.220;4.412;2024-03-02T11:59:44;3.93;;;1.40;;
5937;SDS011;2994;51.220;4.412;2024-03-02T12:02:17;4.83;;;2.20;;
5937;SDS011;2994;51.220;4.412;2024-03-02T12:04:44;3.43;;;1.50;;
5937;SDS011;2994;51.220;4.412;2024-03-02T12:07:10;4.57;;;1.60;;
5937;SDS011;2994;51.220;4.412;2024-03-02T12:09:36;2.73;;;1.20;;
5937;SDS011;2994;51.220;4.412;2024-03-02T12:12:05;3.53;;;1.00;;
5937;SDS011;2994;51.220;4.412;2024-03-02T12:14:33;4.80;;;1.60;;
5937;SDS011;2994;51.220;4.412;2024-03-02T12:16:59;2.70;;;1.50;;
5937;SDS011;2994;51.220;4.412;2024-03-02T12:19:25;5.43;;;1.30;;
5937;SDS011;2994;51.220;4.412;2024-03-02T12:21:52;2.23;;;1.30;;
5937;SDS011;2994;51.220;4.412;2024-03-02T12:24:19;3.57;;;2.13;;
5937;SDS011;2994;51.220;4.412;2024-03-02T12:26:46;3.90;;;1.63;;
5937;SDS011;2994;51.220;4.412;2024-03-02T12:29:13;4.80;;;2.00;;
5937;SDS011;2994;51.220;4.412;2024-03-02T12:31:40;2.90;;;1.40;;
5937;SDS011;2994;51.220;4.412;2024-03-02T12:34:05;2.83;;;1.30;;
5937;SDS011;2994;51.220;4.412;2024-03-02T12:36:36;3.80;;;1.70;;
5937;SDS011;2994;51.220;4.412;2024-03-02T12:39:03;3.60;;;1.70;;
5937;SDS011;2994;51.220;4.412;2024-03-02T12:41:29;2.70;;;1.53;;
5937;SDS011;2994;51.220;4.412;2024-03-02T12:43:54;5.47;;;1.50;;
5937;SDS011;2994;51.220;4.412;2024-03-02T12:46:19;3.27;;;1.73;;
5937;SDS011;2994;51.220;4.412;2024-03-02T12:48:45;2.63;;;1.30;;
5937;SDS011;2994;51.220;4.412;2024-03-02T12:51:13;3.30;;;1.70;;
5937;SDS011;2994;51.220;4.412;2024-03-02T12:53:39;2.63;;;1.23;;
5937;SDS011;2994;51.220;4.412;2024-03-02T12:56:05;3.03;;;1.00;;
5937;SDS011;2994;51.220;4.412;2024-03-02T12:58:31;3.40;;;1.80;;
5937;SDS011;2994;51.220;4.412;2024-03-02T13:01:05;3.30;;;1.70;;
5937;SDS011;2994;51.220;4.412;2024-03-02T13:03:37;2.47;;;1.30;;
5937;SDS011;2994;51.220;4.412;2024-03-02T13:06:04;4.20;;;1.43;;
5937;SDS011;2994;51.220;4.412;2024-03-02T13:08:30;5.67;;;1.67;;
5937;SDS011;2994;51.220;4.412;2024-03-02T13:10:56;3.33;;;1.60;;
5937;SDS011;2994;51.220;4.412;2024-03-02T13:13:22;2.70;;;1.40;;
5937;SDS011;2994;51.220;4.412;2024-03-02T13:15:48;3.53;;;1.27;;
5937;SDS011;2994;51.220;4.412;2024-03-02T13:18:13;2.90;;;1.30;;
5937;SDS011;2994;51.220;4.412;2024-03-02T13:20:39;4.67;;;1.30;;
5937;SDS011;2994;51.220;4.412;2024-03-02T13:23:05;3.93;;;1.20;;
5937;SDS011;2994;51.220;4.412;2024-03-02T13:25:31;4.50;;;1.40;;
5937;SDS011;2994;51.220;4.412;2024-03-02T13:27:57;3.63;;;1.20;;
5937;SDS011;2994;51.220;4.412;2024-03-02T13:30:23;2.93;;;1.20;;
5937;SDS011;2994;51.220;4.412;2024-03-02T13:32:48;3.23;;;1.40;;
5937;SDS011;2994;51.220;4.412;2024-03-02T13:35:14;4.20;;;1.60;;
5937;SDS011;2994;51.220;4.412;2024-03-02T13:37:39;3.33;;;1.50;;
5937;SDS011;2994;51.220;4.412;2024-03-02T13:40:05;2.80;;;1.30;;
5937;SDS011;2994;51.220;4.412;2024-03-02T13:42:31;3.53;;;1.00;;
5937;SDS011;2994;51.220;4.412;2024-03-02T13:44:56;2.53;;;1.17;;
5937;SDS011;2994;51.220;4.412;2024-03-02T13:47:22;3.73;;;0.87;;
5937;SDS011;2994;51.220;4.412;2024-03-02T13:49:50;2.77;;;1.97;;
5937;SDS011;2994;51.220;4.412;2024-03-02T13:52:15;2.10;;;1.13;;
5937;SDS011;2994;51.220;4.412;2024-03-02T13:54:44;3.83;;;1.20;;
5937;SDS011;2994;51.220;4.412;2024-03-02T13:57:10;2.00;;;1.10;;
5937;SDS011;2994;51.220;4.412;2024-03-02T13:59:37;3.03;;;1.73;;
5937;SDS011;2994;51.220;4.412;2024-03-02T14:02:03;3.47;;;1.60;;
5937;SDS011;2994;51.220;4.412;2024-03-02T14:04:36;3.10;;;1.30;;
5937;SDS011;2994;51.220;4.412;2024-03-02T14:07:01;3.73;;;1.43;;
5937;SDS011;2994;51.220;4.412;2024-03-02T14:09:27;2.70;;;1.20;;
5937;SDS011;2994;51.220;4.412;2024-03-02T14:11:53;4.20;;;1.10;;
5937;SDS011;2994;51.220;4.412;2024-03-02T14:14:19;2.90;;;1.27;;
5937;SDS011;2994;51.220;4.412;2024-03-02T14:16:45;1.77;;;1.00;;
5937;SDS011;2994;51.220;4.412;2024-03-02T14:19:13;2.93;;;1.30;;
5937;SDS011;2994;51.220;4.412;2024-03-02T14:21:39;3.60;;;1.77;;
5937;SDS011;2994;51.220;4.412;2024-03-02T14:24:05;1.80;;;1.30;;
5937;SDS011;2994;51.220;4.412;2024-03-02T14:26:32;3.80;;;1.40;;
5937;SDS011;2994;51.220;4.412;2024-03-02T14:29:01;1.90;;;1.27;;
5937;SDS011;2994;51.220;4.412;2024-03-02T14:31:27;3.07;;;1.50;;
5937;SDS011;2994;51.220;4.412;2024-03-02T14:33:53;4.90;;;1.77;;
5937;SDS011;2994;51.220;4.412;2024-03-02T14:36:19;2.40;;;1.50;;
5937;SDS011;2994;51.220;4.412;2024-03-02T14:38:45;2.50;;;1.20;;
5937;SDS011;2994;51.220;4.412;2024-03-02T14:41:10;2.90;;;1.97;;
5937;SDS011;2994;51.220;4.412;2024-03-02T14:43:36;2.23;;;1.30;;
5937;SDS011;2994;51.220;4.412;2024-03-02T14:46:03;1.90;;;1.10;;
5937;SDS011;2994;51.220;4.412;2024-03-02T14:48:28;1.97;;;1.13;;
5937;SDS011;2994;51.220;4.412;2024-03-02T14:50:54;2.83;;;1.40;;
5937;SDS011;2994;51.220;4.412;2024-03-02T14:53:20;2.17;;;1.53;;
5937;SDS011;2994;51.220;4.412;2024-03-02T15:03:31;2.10;;;1.40;;
5937;SDS011;2994;51.220;4.412;2024-03-02T15:05:57;2.00;;;1.30;;
5937;SDS011;2994;51.220;4.412;2024-03-02T15:08:23;2.23;;;1.20;;
5937;SDS011;2994;51.220;4.412;2024-03-02T15:10:48;2.10;;;1.17;;
5937;SDS011;2994;51.220;4.412;2024-03-02T15:13:14;2.17;;;1.23;;
5937;SDS011;2994;51.220;4.412;2024-03-02T15:15:39;1.73;;;1.10;;
5937;SDS011;2994;51.220;4.412;2024-03-02T15:18:06;4.53;;;1.20;;
5937;SDS011;2994;51.220;4.412;2024-03-02T15:23:34;3.80;;;1.70;;
5937;SDS011;2994;51.220;4.412;2024-03-02T15:49:42;2.80;;;1.20;;
5937;SDS011;2994;51.220;4.412;2024-03-02T15:52:13;2.90;;;1.57;;